sensor_id;sensor_type;location;lat;lon;timestamp;P1;P2;P0
57049;PMS7003;42935;50.966;16.992;2023-02-28T00:01:09;184;134;69
57049;PMS7003;42935;50.966;16.992;2023-02-28T00:04:30;172;121;68
57049;PMS7003;42935;50.966;16.992;2023-02-28T00:07:55;177;124;68
57049;PMS7003;42935;50.966;16.992;2023-02-28T00:11:17;135;100;54
57049;PMS7003;42935;50.966;16.992;2023-02-28T00:14:52;96;68;41
57049;PMS7003;42935;50.966;16.992;2023-02-28T00:18:23;93;69;40
57049;PMS7003;42935;50.966;16.992;2023-02-28T00:21:51;133;96;54
57049;PMS7003;42935;50.966;16.992;2023-02-28T00:25:16;114;82;47
57049;PMS7003;42935;50.966;16.992;2023-02-28T00:28:39;89;69;41
57049;PMS7003;42935;50.966;16.992;2023-02-28T00:32:07;90;67;39
57049;PMS7003;42935;50.966;16.992;2023-02-28T00:35:30;95;73;41
57049;PMS7003;42935;50.966;16.992;2023-02-28T00:38:58;112;82;47
57049;PMS7003;42935;50.966;16.992;2023-02-28T00:42:22;112;86;49
57049;PMS7003;42935;50.966;16.992;2023-02-28T00:45:42;107;82;45
57049;PMS7003;42935;50.966;16.992;2023-02-28T00:49:06;92;67;40
57049;PMS7003;42935;50.966;16.992;2023-02-28T00:52:27;93;64;39
57049;PMS7003;42935;50.966;16.992;2023-02-28T00:55:47;88;63;38
57049;PMS7003;42935;50.966;16.992;2023-02-28T00:59:08;79;57;34
57049;PMS7003;42935;50.966;16.992;2023-02-28T01:02:40;82;58;33
57049;PMS7003;42935;50.966;16.992;2023-02-28T01:06:01;76;55;35
57049;PMS7003;42935;50.966;16.992;2023-02-28T01:09:29;71;51;32
57049;PMS7003;42935;50.966;16.992;2023-02-28T01:12:51;75;54;34
57049;PMS7003;42935;50.966;16.992;2023-02-28T01:16:19;64;46;29
57049;PMS7003;42935;50.966;16.992;2023-02-28T01:19:39;60;42;27
57049;PMS7003;42935;50.966;16.992;2023-02-28T01:23:00;59;45;27
57049;PMS7003;42935;50.966;16.992;2023-02-28T01:26:24;64;47;29
57049;PMS7003;42935;50.966;16.992;2023-02-28T01:29:56;62;44;27
57049;PMS7003;42935;50.966;16.992;2023-02-28T01:33:20;60;45;27
57049;PMS7003;42935;50.966;16.992;2023-02-28T01:36:50;58;42;27
57049;PMS7003;42935;50.966;16.992;2023-02-28T01:40:11;55;39;23
57049;PMS7003;42935;50.966;16.992;2023-02-28T01:47:11;59;41;26
57049;PMS7003;42935;50.966;16.992;2023-02-28T01:50:31;50;39;25
57049;PMS7003;42935;50.966;16.992;2023-02-28T01:53:57;40;33;22
57049;PMS7003;42935;50.966;16.992;2023-02-28T01:57:23;47;36;23
57049;PMS7003;42935;50.966;16.992;2023-02-28T02:00:53;45;34;22
57049;PMS7003;42935;50.966;16.992;2023-02-28T02:04:18;47;34;20
57049;PMS7003;42935;50.966;16.992;2023-02-28T02:07:38;41;30;20
57049;PMS7003;42935;50.966;16.992;2023-02-28T02:11:02;42;33;21
57049;PMS7003;42935;50.966;16.992;2023-02-28T02:25:24;44;31;21
57049;PMS7003;42935;50.966;16.992;2023-02-28T02:28:54;44;35;22
57049;PMS7003;42935;50.966;16.992;2023-02-28T02:35:54;45;33;21
57049;PMS7003;42935;50.966;16.992;2023-02-28T02:39:31;40;32;19
57049;PMS7003;42935;50.966;16.992;2023-02-28T02:42:56;44;34;23
57049;PMS7003;42935;50.966;16.992;2023-02-28T02:49:59;54;41;27
57049;PMS7003;42935;50.966;16.992;2023-02-28T02:57:03;58;39;26
57049;PMS7003;42935;50.966;16.992;2023-02-28T03:04:10;53;37;24
57049;PMS7003;42935;50.966;16.992;2023-02-28T03:07:40;45;34;22
57049;PMS7003;42935;50.966;16.992;2023-02-28T03:10:59;51;38;25
57049;PMS7003;42935;50.966;16.992;2023-02-28T03:18:04;50;39;25
57049;PMS7003;42935;50.966;16.992;2023-02-28T03:28:51;50;35;23
57049;PMS7003;42935;50.966;16.992;2023-02-28T03:32:19;48;36;23
57049;PMS7003;42935;50.966;16.992;2023-02-28T03:43:06;56;37;23
57049;PMS7003;42935;50.966;16.992;2023-02-28T03:46:36;48;36;22
57049;PMS7003;42935;50.966;16.992;2023-02-28T03:53:42;54;40;24
57049;PMS7003;42935;50.966;16.992;2023-02-28T03:57:13;49;34;21
57049;PMS7003;42935;50.966;16.992;2023-02-28T04:00:45;46;36;21
57049;PMS7003;42935;50.966;16.992;2023-02-28T04:04:15;52;36;23
57049;PMS7003;42935;50.966;16.992;2023-02-28T04:07:44;49;36;23
57049;PMS7003;42935;50.966;16.992;2023-02-28T04:11:13;54;39;23
57049;PMS7003;42935;50.966;16.992;2023-02-28T04:14:39;45;34;23
57049;PMS7003;42935;50.966;16.992;2023-02-28T04:17:58;55;38;24
57049;PMS7003;42935;50.966;16.992;2023-02-28T04:21:15;55;40;26
57049;PMS7003;42935;50.966;16.992;2023-02-28T04:24:52;58;43;26
57049;PMS7003;42935;50.966;16.992;2023-02-28T04:28:13;58;40;25
57049;PMS7003;42935;50.966;16.992;2023-02-28T04:31:36;54;38;24
57049;PMS7003;42935;50.966;16.992;2023-02-28T04:35:04;62;45;29
57049;PMS7003;42935;50.966;16.992;2023-02-28T04:38:28;65;47;32
57049;PMS7003;42935;50.966;16.992;2023-02-28T04:41:52;69;53;33
57049;PMS7003;42935;50.966;16.992;2023-02-28T04:45:18;58;43;29
57049;PMS7003;42935;50.966;16.992;2023-02-28T04:48:41;57;42;27
57049;PMS7003;42935;50.966;16.992;2023-02-28T04:52:04;55;40;25
57049;PMS7003;42935;50.966;16.992;2023-02-28T04:55:31;58;42;24
57049;PMS7003;42935;50.966;16.992;2023-02-28T04:58:59;53;39;25
57049;PMS7003;42935;50.966;16.992;2023-02-28T05:02:19;56;41;26
57049;PMS7003;42935;50.966;16.992;2023-02-28T05:05:41;62;45;27
57049;PMS7003;42935;50.966;16.992;2023-02-28T05:09:11;67;49;29
57049;PMS7003;42935;50.966;16.992;2023-02-28T05:12:35;71;52;32
57049;PMS7003;42935;50.966;16.992;2023-02-28T05:15:56;65;47;30
57049;PMS7003;42935;50.966;16.992;2023-02-28T05:19:20;57;43;27
57049;PMS7003;42935;50.966;16.992;2023-02-28T05:22:43;60;45;27
57049;PMS7003;42935;50.966;16.992;2023-02-28T05:26:09;75;52;31
57049;PMS7003;42935;50.966;16.992;2023-02-28T05:29:34;76;53;31
57049;PMS7003;42935;50.966;16.992;2023-02-28T05:33:02;74;51;31
57049;PMS7003;42935;50.966;16.992;2023-02-28T05:36:53;63;46;28
57049;PMS7003;42935;50.966;16.992;2023-02-28T05:40:25;83;58;35
57049;PMS7003;42935;50.966;16.992;2023-02-28T05:43:49;81;57;36
57049;PMS7003;42935;50.966;16.992;2023-02-28T05:47:17;78;57;34
57049;PMS7003;42935;50.966;16.992;2023-02-28T05:50:37;71;50;32
57049;PMS7003;42935;50.966;16.992;2023-02-28T05:53:58;52;40;26
57049;PMS7003;42935;50.966;16.992;2023-02-28T05:57:54;54;40;24
57049;PMS7003;42935;50.966;16.992;2023-02-28T06:05:01;67;50;30
57049;PMS7003;42935;50.966;16.992;2023-02-28T06:08:22;76;53;33
57049;PMS7003;42935;50.966;16.992;2023-02-28T06:11:50;140;98;50
57049;PMS7003;42935;50.966;16.992;2023-02-28T06:15:12;131;94;47
57049;PMS7003;42935;50.966;16.992;2023-02-28T06:18:41;77;53;31
57049;PMS7003;42935;50.966;16.992;2023-02-28T06:22:10;78;52;32
57049;PMS7003;42935;50.966;16.992;2023-02-28T06:26:07;71;49;29
57049;PMS7003;42935;50.966;16.992;2023-02-28T06:29:27;72;52;31
57049;PMS7003;42935;50.966;16.992;2023-02-28T06:32:56;92;62;37
57049;PMS7003;42935;50.966;16.992;2023-02-28T06:36:21;90;60;35
57049;PMS7003;42935;50.966;16.992;2023-02-28T06:40:17;81;56;34
57049;PMS7003;42935;50.966;16.992;2023-02-28T06:43:38;81;55;33
57049;PMS7003;42935;50.966;16.992;2023-02-28T06:47:00;75;53;31
57049;PMS7003;42935;50.966;16.992;2023-02-28T06:50:25;89;63;37
57049;PMS7003;42935;50.966;16.992;2023-02-28T06:53:48;75;53;31
57049;PMS7003;42935;50.966;16.992;2023-02-28T06:57:16;76;55;33
57049;PMS7003;42935;50.966;16.992;2023-02-28T07:00:43;71;50;30
57049;PMS7003;42935;50.966;16.992;2023-02-28T07:04:08;71;51;31
57049;PMS7003;42935;50.966;16.992;2023-02-28T07:07:32;67;48;30
57049;PMS7003;42935;50.966;16.992;2023-02-28T07:11:04;76;52;32
57049;PMS7003;42935;50.966;16.992;2023-02-28T07:14:32;71;50;30
57049;PMS7003;42935;50.966;16.992;2023-02-28T07:17:57;65;47;26
57049;PMS7003;42935;50.966;16.992;2023-02-28T07:21:20;58;44;26
57049;PMS7003;42935;50.966;16.992;2023-02-28T07:24:40;58;42;26
57049;PMS7003;42935;50.966;16.992;2023-02-28T07:28:30;55;39;25
57049;PMS7003;42935;50.966;16.992;2023-02-28T07:31:51;53;38;22
57049;PMS7003;42935;50.966;16.992;2023-02-28T07:35:09;49;36;23
57049;PMS7003;42935;50.966;16.992;2023-02-28T07:38:34;52;39;22
57049;PMS7003;42935;50.966;16.992;2023-02-28T07:41:59;52;37;23
57049;PMS7003;42935;50.966;16.992;2023-02-28T07:45:24;53;39;24
57049;PMS7003;42935;50.966;16.992;2023-02-28T07:48:56;50;37;22
57049;PMS7003;42935;50.966;16.992;2023-02-28T07:52:18;50;36;21
57049;PMS7003;42935;50.966;16.992;2023-02-28T07:55:53;46;35;22
57049;PMS7003;42935;50.966;16.992;2023-02-28T07:59:19;41;34;21
57049;PMS7003;42935;50.966;16.992;2023-02-28T08:02:37;43;34;22
57049;PMS7003;42935;50.966;16.992;2023-02-28T08:06:04;45;34;22
57049;PMS7003;42935;50.966;16.992;2023-02-28T08:09:29;48;34;21
57049;PMS7003;42935;50.966;16.992;2023-02-28T08:12:48;35;29;20
57049;PMS7003;42935;50.966;16.992;2023-02-28T08:16:04;45;33;19
57049;PMS7003;42935;50.966;16.992;2023-02-28T08:19:28;39;30;18
57049;PMS7003;42935;50.966;16.992;2023-02-28T08:22:48;31;26;17
57049;PMS7003;42935;50.966;16.992;2023-02-28T08:26:09;44;32;20
57049;PMS7003;42935;50.966;16.992;2023-02-28T08:29:33;37;28;18
57049;PMS7003;42935;50.966;16.992;2023-02-28T08:32:53;33;26;19
57049;PMS7003;42935;50.966;16.992;2023-02-28T08:36:15;37;29;17
57049;PMS7003;42935;50.966;16.992;2023-02-28T08:39:37;40;29;17
57049;PMS7003;42935;50.966;16.992;2023-02-28T08:42:55;33;26;17
57049;PMS7003;42935;50.966;16.992;2023-02-28T08:46:15;39;29;21
57049;PMS7003;42935;50.966;16.992;2023-02-28T08:49:36;42;33;20
57049;PMS7003;42935;50.966;16.992;2023-02-28T08:53:00;40;31;20
57049;PMS7003;42935;50.966;16.992;2023-02-28T08:56:27;41;29;19
57049;PMS7003;42935;50.966;16.992;2023-02-28T08:59:52;41;30;18
57049;PMS7003;42935;50.966;16.992;2023-02-28T09:03:16;24;20;14
57049;PMS7003;42935;50.966;16.992;2023-02-28T09:06:34;23;20;14
57049;PMS7003;42935;50.966;16.992;2023-02-28T09:09:52;27;22;16
57049;PMS7003;42935;50.966;16.992;2023-02-28T09:13:10;34;24;15
57049;PMS7003;42935;50.966;16.992;2023-02-28T09:16:34;39;28;16
57049;PMS7003;42935;50.966;16.992;2023-02-28T09:19:55;37;28;17
57049;PMS7003;42935;50.966;16.992;2023-02-28T09:23:16;32;27;18
57049;PMS7003;42935;50.966;16.992;2023-02-28T09:26:34;36;29;18
57049;PMS7003;42935;50.966;16.992;2023-02-28T09:29:51;32;28;18
57049;PMS7003;42935;50.966;16.992;2023-02-28T09:33:12;32;26;17
57049;PMS7003;42935;50.966;16.992;2023-02-28T09:36:30;27;22;15
57049;PMS7003;42935;50.966;16.992;2023-02-28T09:40:01;35;28;17
57049;PMS7003;42935;50.966;16.992;2023-02-28T09:43:23;32;26;17
57049;PMS7003;42935;50.966;16.992;2023-02-28T09:46:47;30;24;15
57049;PMS7003;42935;50.966;16.992;2023-02-28T09:53:41;35;25;16
57049;PMS7003;42935;50.966;16.992;2023-02-28T09:57:06;28;24;16
57049;PMS7003;42935;50.966;16.992;2023-02-28T10:00:33;33;27;17
57049;PMS7003;42935;50.966;16.992;2023-02-28T10:11:14;36;28;16
57049;PMS7003;42935;50.966;16.992;2023-02-28T10:14:36;27;24;15
57049;PMS7003;42935;50.966;16.992;2023-02-28T10:18:09;35;28;17
57049;PMS7003;42935;50.966;16.992;2023-02-28T10:21:41;41;33;19
57049;PMS7003;42935;50.966;16.992;2023-02-28T10:28:44;29;24;15
57049;PMS7003;42935;50.966;16.992;2023-02-28T10:32:02;34;25;16
57049;PMS7003;42935;50.966;16.992;2023-02-28T10:35:24;33;27;16
57049;PMS7003;42935;50.966;16.992;2023-02-28T10:38:41;32;26;15
57049;PMS7003;42935;50.966;16.992;2023-02-28T10:42:18;29;23;15
57049;PMS7003;42935;50.966;16.992;2023-02-28T10:45:37;36;28;17
57049;PMS7003;42935;50.966;16.992;2023-02-28T10:49:00;33;24;17
57049;PMS7003;42935;50.966;16.992;2023-02-28T10:59:41;35;28;18
57049;PMS7003;42935;50.966;16.992;2023-02-28T11:03:04;35;27;17
57049;PMS7003;42935;50.966;16.992;2023-02-28T11:06:33;34;28;16
57049;PMS7003;42935;50.966;16.992;2023-02-28T11:09:55;34;27;17
57049;PMS7003;42935;50.966;16.992;2023-02-28T11:13:19;38;27;18
57049;PMS7003;42935;50.966;16.992;2023-02-28T11:16:49;40;32;18
57049;PMS7003;42935;50.966;16.992;2023-02-28T11:20:18;38;31;18
57049;PMS7003;42935;50.966;16.992;2023-02-28T11:23:39;40;27;19
57049;PMS7003;42935;50.966;16.992;2023-02-28T11:27:05;38;31;18
57049;PMS7003;42935;50.966;16.992;2023-02-28T11:30:36;36;28;17
57049;PMS7003;42935;50.966;16.992;2023-02-28T11:34:08;41;31;20
57049;PMS7003;42935;50.966;16.992;2023-02-28T11:37:33;41;28;19
57049;PMS7003;42935;50.966;16.992;2023-02-28T11:41:02;33;25;17
57049;PMS7003;42935;50.966;16.992;2023-02-28T12:05:40;32;27;16
57049;PMS7003;42935;50.966;16.992;2023-02-28T12:09:12;28;24;16
57049;PMS7003;42935;50.966;16.992;2023-02-28T12:16:17;32;23;16
57049;PMS7003;42935;50.966;16.992;2023-02-28T12:23:23;30;24;17
57049;PMS7003;42935;50.966;16.992;2023-02-28T12:26:51;34;29;18
57049;PMS7003;42935;50.966;16.992;2023-02-28T12:30:23;35;28;17
57049;PMS7003;42935;50.966;16.992;2023-02-28T12:33:46;36;26;16
57049;PMS7003;42935;50.966;16.992;2023-02-28T12:37:17;29;24;16
57049;PMS7003;42935;50.966;16.992;2023-02-28T12:40:45;29;25;15
57049;PMS7003;42935;50.966;16.992;2023-02-28T12:47:42;33;22;15
57049;PMS7003;42935;50.966;16.992;2023-02-28T12:51:04;34;25;17
57049;PMS7003;42935;50.966;16.992;2023-02-28T13:12:13;36;27;18
57049;PMS7003;42935;50.966;16.992;2023-02-28T13:15:39;28;23;16
57049;PMS7003;42935;50.966;16.992;2023-02-28T13:19:08;38;30;18
57049;PMS7003;42935;50.966;16.992;2023-02-28T13:26:00;29;26;18
57049;PMS7003;42935;50.966;16.992;2023-02-28T13:36:29;35;27;16
57049;PMS7003;42935;50.966;16.992;2023-02-28T13:39:48;34;27;17
57049;PMS7003;42935;50.966;16.992;2023-02-28T13:43:10;33;25;16
57049;PMS7003;42935;50.966;16.992;2023-02-28T13:46:33;38;29;19
57049;PMS7003;42935;50.966;16.992;2023-02-28T13:53:43;36;29;17
57049;PMS7003;42935;50.966;16.992;2023-02-28T14:08:08;34;26;16
57049;PMS7003;42935;50.966;16.992;2023-02-28T14:11:41;34;29;18
57049;PMS7003;42935;50.966;16.992;2023-02-28T14:15:25;32;26;16
57049;PMS7003;42935;50.966;16.992;2023-02-28T14:18:47;34;27;17
57049;PMS7003;42935;50.966;16.992;2023-02-28T14:25:45;34;26;17
57049;PMS7003;42935;50.966;16.992;2023-02-28T14:39:51;36;29;16
57049;PMS7003;42935;50.966;16.992;2023-02-28T14:46:46;36;29;17
57049;PMS7003;42935;50.966;16.992;2023-02-28T14:50:17;35;27;18
57049;PMS7003;42935;50.966;16.992;2023-02-28T14:53:48;55;43;27
57049;PMS7003;42935;50.966;16.992;2023-02-28T15:00:49;41;31;19
57049;PMS7003;42935;50.966;16.992;2023-02-28T15:04:20;59;43;27
57049;PMS7003;42935;50.966;16.992;2023-02-28T15:07:45;52;41;25
57049;PMS7003;42935;50.966;16.992;2023-02-28T15:14:39;47;37;25
57049;PMS7003;42935;50.966;16.992;2023-02-28T15:18:06;52;39;23
57049;PMS7003;42935;50.966;16.992;2023-02-28T15:21:34;55;41;25
57049;PMS7003;42935;50.966;16.992;2023-02-28T15:24:56;45;36;24
57049;PMS7003;42935;50.966;16.992;2023-02-28T15:28:19;71;49;29
57049;PMS7003;42935;50.966;16.992;2023-02-28T15:31:46;84;60;36
57049;PMS7003;42935;50.966;16.992;2023-02-28T15:38:51;84;66;42
57049;PMS7003;42935;50.966;16.992;2023-02-28T15:42:17;80;60;41
57049;PMS7003;42935;50.966;16.992;2023-02-28T15:49:22;157;112;60
57049;PMS7003;42935;50.966;16.992;2023-02-28T15:52:44;128;98;54
57049;PMS7003;42935;50.966;16.992;2023-02-28T15:56:45;105;79;45
57049;PMS7003;42935;50.966;16.992;2023-02-28T16:00:13;127;93;49
57049;PMS7003;42935;50.966;16.992;2023-02-28T16:03:45;144;101;53
57049;PMS7003;42935;50.966;16.992;2023-02-28T16:07:12;373;249;118
57049;PMS7003;42935;50.966;16.992;2023-02-28T16:10:38;192;138;70
57049;PMS7003;42935;50.966;16.992;2023-02-28T16:14:05;447;302;136
57049;PMS7003;42935;50.966;16.992;2023-02-28T16:17:38;169;119;60
57049;PMS7003;42935;50.966;16.992;2023-02-28T16:21:02;363;250;119
57049;PMS7003;42935;50.966;16.992;2023-02-28T16:24:25;355;253;127
57049;PMS7003;42935;50.966;16.992;2023-02-28T16:27:49;182;132;71
57049;PMS7003;42935;50.966;16.992;2023-02-28T16:31:15;114;88;49
57049;PMS7003;42935;50.966;16.992;2023-02-28T16:34:40;91;67;39
57049;PMS7003;42935;50.966;16.992;2023-02-28T16:38:04;71;53;32
57049;PMS7003;42935;50.966;16.992;2023-02-28T16:41:27;84;59;38
57049;PMS7003;42935;50.966;16.992;2023-02-28T16:44:55;87;71;42
57049;PMS7003;42935;50.966;16.992;2023-02-28T16:48:16;78;58;36
57049;PMS7003;42935;50.966;16.992;2023-02-28T16:51:35;87;64;39
57049;PMS7003;42935;50.966;16.992;2023-02-28T16:55:00;94;71;42
57049;PMS7003;42935;50.966;16.992;2023-02-28T16:58:25;101;76;45
57049;PMS7003;42935;50.966;16.992;2023-02-28T17:01:48;84;63;38
57049;PMS7003;42935;50.966;16.992;2023-02-28T17:05:16;89;64;40
57049;PMS7003;42935;50.966;16.992;2023-02-28T17:08:38;101;74;42
57049;PMS7003;42935;50.966;16.992;2023-02-28T17:12:05;119;83;47
57049;PMS7003;42935;50.966;16.992;2023-02-28T17:15:34;105;77;44
57049;PMS7003;42935;50.966;16.992;2023-02-28T17:19:00;89;65;40
57049;PMS7003;42935;50.966;16.992;2023-02-28T17:22:23;89;64;38
57049;PMS7003;42935;50.966;16.992;2023-02-28T17:25:52;87;69;40
57049;PMS7003;42935;50.966;16.992;2023-02-28T17:29:20;99;75;43
57049;PMS7003;42935;50.966;16.992;2023-02-28T17:32:45;237;172;85
57049;PMS7003;42935;50.966;16.992;2023-02-28T17:36:14;151;113;62
57049;PMS7003;42935;50.966;16.992;2023-02-28T17:39:48;100;76;44
57049;PMS7003;42935;50.966;16.992;2023-02-28T17:43:18;91;67;40
57049;PMS7003;42935;50.966;16.992;2023-02-28T17:46:41;82;63;38
57049;PMS7003;42935;50.966;16.992;2023-02-28T17:50:03;97;75;46
57049;PMS7003;42935;50.966;16.992;2023-02-28T17:53:28;134;106;61
57049;PMS7003;42935;50.966;16.992;2023-02-28T17:57:27;105;82;50
57049;PMS7003;42935;50.966;16.992;2023-02-28T18:00:43;83;59;38
57049;PMS7003;42935;50.966;16.992;2023-02-28T18:04:17;89;61;38
57049;PMS7003;42935;50.966;16.992;2023-02-28T18:08:09;93;68;39
57049;PMS7003;42935;50.966;16.992;2023-02-28T18:11:27;148;95;48
57049;PMS7003;42935;50.966;16.992;2023-02-28T18:15:01;322;198;88
57049;PMS7003;42935;50.966;16.992;2023-02-28T18:18:24;409;238;99
57049;PMS7003;42935;50.966;16.992;2023-02-28T18:21:43;193;134;62
57049;PMS7003;42935;50.966;16.992;2023-02-28T18:25:09;285;175;77
57049;PMS7003;42935;50.966;16.992;2023-02-28T18:28:37;484;283;114
57049;PMS7003;42935;50.966;16.992;2023-02-28T18:32:04;684;390;147
57049;PMS7003;42935;50.966;16.992;2023-02-28T18:35:28;313;211;100
57049;PMS7003;42935;50.966;16.992;2023-02-28T18:39:00;205;141;75
57049;PMS7003;42935;50.966;16.992;2023-02-28T18:42:21;167;115;61
57049;PMS7003;42935;50.966;16.992;2023-02-28T18:45:47;138;98;53
57049;PMS7003;42935;50.966;16.992;2023-02-28T18:49:12;118;87;47
57049;PMS7003;42935;50.966;16.992;2023-02-28T18:52:38;102;73;40
57049;PMS7003;42935;50.966;16.992;2023-02-28T18:56:27;99;75;40
57049;PMS7003;42935;50.966;16.992;2023-02-28T18:59:51;122;82;44
57049;PMS7003;42935;50.966;16.992;2023-02-28T19:03:20;116;85;45
57049;PMS7003;42935;50.966;16.992;2023-02-28T19:06:49;116;86;43
57049;PMS7003;42935;50.966;16.992;2023-02-28T19:10:09;105;77;42
57049;PMS7003;42935;50.966;16.992;2023-02-28T19:13:38;107;80;45
57049;PMS7003;42935;50.966;16.992;2023-02-28T19:17:06;98;73;42
57049;PMS7003;42935;50.966;16.992;2023-02-28T19:20:25;92;64;38
57049;PMS7003;42935;50.966;16.992;2023-02-28T19:23:49;90;64;38
57049;PMS7003;42935;50.966;16.992;2023-02-28T19:27:18;100;76;44
57049;PMS7003;42935;50.966;16.992;2023-02-28T19:30:49;117;86;50
57049;PMS7003;42935;50.966;16.992;2023-02-28T19:34:15;114;90;53
57049;PMS7003;42935;50.966;16.992;2023-02-28T19:37:39;101;77;45
57049;PMS7003;42935;50.966;16.992;2023-02-28T19:41:01;106;82;49
57049;PMS7003;42935;50.966;16.992;2023-02-28T19:44:30;100;79;46
57049;PMS7003;42935;50.966;16.992;2023-02-28T19:47:57;92;67;40
57049;PMS7003;42935;50.966;16.992;2023-02-28T19:51:25;92;68;42
57049;PMS7003;42935;50.966;16.992;2023-02-28T19:55:20;111;79;47
57049;PMS7003;42935;50.966;16.992;2023-02-28T19:58:47;110;81;48
57049;PMS7003;42935;50.966;16.992;2023-02-28T20:02:16;139;101;56
57049;PMS7003;42935;50.966;16.992;2023-02-28T20:05:40;159;108;56
57049;PMS7003;42935;50.966;16.992;2023-02-28T20:09:03;167;116;60
57049;PMS7003;42935;50.966;16.992;2023-02-28T20:12:24;113;84;45
57049;PMS7003;42935;50.966;16.992;2023-02-28T20:15:58;130;95;52
57049;PMS7003;42935;50.966;16.992;2023-02-28T20:19:25;222;148;75
57049;PMS7003;42935;50.966;16.992;2023-02-28T20:23:22;128;95;52
57049;PMS7003;42935;50.966;16.992;2023-02-28T20:26:46;163;109;59
57049;PMS7003;42935;50.966;16.992;2023-02-28T20:30:11;115;85;47
57049;PMS7003;42935;50.966;16.992;2023-02-28T20:34:03;98;76;46
57049;PMS7003;42935;50.966;16.992;2023-02-28T20:37:27;102;79;45
57049;PMS7003;42935;50.966;16.992;2023-02-28T20:40:53;101;75;46
57049;PMS7003;42935;50.966;16.992;2023-02-28T20:44:20;101;80;49
57049;PMS7003;42935;50.966;16.992;2023-02-28T20:47:49;102;77;44
57049;PMS7003;42935;50.966;16.992;2023-02-28T20:51:13;109;79;47
57049;PMS7003;42935;50.966;16.992;2023-02-28T20:54:41;240;174;89
57049;PMS7003;42935;50.966;16.992;2023-02-28T20:58:08;228;163;85
57049;PMS7003;42935;50.966;16.992;2023-02-28T21:01:35;193;137;74
57049;PMS7003;42935;50.966;16.992;2023-02-28T21:05:02;124;87;50
57049;PMS7003;42935;50.966;16.992;2023-02-28T21:08:22;109;81;44
57049;PMS7003;42935;50.966;16.992;2023-02-28T21:11:43;215;148;79
57049;PMS7003;42935;50.966;16.992;2023-02-28T21:15:08;217;155;84
57049;PMS7003;42935;50.966;16.992;2023-02-28T21:18:34;126;95;53
57049;PMS7003;42935;50.966;16.992;2023-02-28T21:22:01;112;83;46
57049;PMS7003;42935;50.966;16.992;2023-02-28T21:25:26;135;100;57
57049;PMS7003;42935;50.966;16.992;2023-02-28T21:28:50;131;102;59
57049;PMS7003;42935;50.966;16.992;2023-02-28T21:32:11;42;35;34
57049;PMS7003;42935;50.966;16.992;2023-02-28T21:35:28;0;0;0
57049;PMS7003;42935;50.966;16.992;2023-02-28T21:38:45;3;3;3
57049;PMS7003;42935;50.966;16.992;2023-02-28T21:42:00;0;0;0
57049;PMS7003;42935;50.966;16.992;2023-02-28T21:45:14;3;3;3
57049;PMS7003;42935;50.966;16.992;2023-02-28T21:48:32;37;34;34
57049;PMS7003;42935;50.966;16.992;2023-02-28T21:51:46;0;0;0
57049;PMS7003;42935;50.966;16.992;2023-02-28T21:55:00;0;0;0
57049;PMS7003;42935;50.966;16.992;2023-02-28T21:58:14;0;0;0
57049;PMS7003;42935;50.966;16.992;2023-02-28T22:01:30;0;0;0
57049;PMS7003;42935;50.966;16.992;2023-02-28T22:04:47;0;0;0
57049;PMS7003;42935;50.966;16.992;2023-02-28T22:08:03;0;0;0
57049;PMS7003;42935;50.966;16.992;2023-02-28T22:11:17;0;0;0
57049;PMS7003;42935;50.966;16.992;2023-02-28T22:14:31;0;0;0
57049;PMS7003;42935;50.966;16.992;2023-02-28T22:17:56;100;73;42
57049;PMS7003;42935;50.966;16.992;2023-02-28T22:21:16;99;70;42
57049;PMS7003;42935;50.966;16.992;2023-02-28T22:24:37;101;79;45
57049;PMS7003;42935;50.966;16.992;2023-02-28T22:28:05;103;75;43
57049;PMS7003;42935;50.966;16.992;2023-02-28T22:31:32;114;80;45
57049;PMS7003;42935;50.966;16.992;2023-02-28T22:34:56;100;77;45
57049;PMS7003;42935;50.966;16.992;2023-02-28T22:38:24;101;75;42
57049;PMS7003;42935;50.966;16.992;2023-02-28T22:41:49;103;76;42
57049;PMS7003;42935;50.966;16.992;2023-02-28T22:45:10;93;71;43
57049;PMS7003;42935;50.966;16.992;2023-02-28T22:48:29;98;74;43
57049;PMS7003;42935;50.966;16.992;2023-02-28T22:51:52;103;79;46
57049;PMS7003;42935;50.966;16.992;2023-02-28T22:55:15;103;76;44
57049;PMS7003;42935;50.966;16.992;2023-02-28T22:58:38;110;77;44
57049;PMS7003;42935;50.966;16.992;2023-02-28T23:02:03;99;75;45
57049;PMS7003;42935;50.966;16.992;2023-02-28T23:05:30;94;69;39
57049;PMS7003;42935;50.966;16.992;2023-02-28T23:08:59;98;71;41
57049;PMS7003;42935;50.966;16.992;2023-02-28T23:12:28;103;80;45
57049;PMS7003;42935;50.966;16.992;2023-02-28T23:15:56;107;82;45
57049;PMS7003;42935;50.966;16.992;2023-02-28T23:19:19;103;78;43
57049;PMS7003;42935;50.966;16.992;2023-02-28T23:22:45;89;67;40
57049;PMS7003;42935;50.966;16.992;2023-02-28T23:26:14;99;72;42
57049;PMS7003;42935;50.966;16.992;2023-02-28T23:29:43;84;62;36
57049;PMS7003;42935;50.966;16.992;2023-02-28T23:33:10;94;64;39
57049;PMS7003;42935;50.966;16.992;2023-02-28T23:36:33;97;74;43
57049;PMS7003;42935;50.966;16.992;2023-02-28T23:40:10;95;70;41
57049;PMS7003;42935;50.966;16.992;2023-02-28T23:43:37;101;75;43
57049;PMS7003;42935;50.966;16.992;2023-02-28T23:47:00;92;69;40
57049;PMS7003;42935;50.966;16.992;2023-02-28T23:50:28;90;67;39
57049;PMS7003;42935;50.966;16.992;2023-02-28T23:53:58;89;64;39
57049;PMS7003;42935;50.966;16.992;2023-02-28T23:57:28;92;64;38
